Praslin, Seychelles

11:14 PM SCT on December 25, 2014 (GMT +0400)
Seychelles International | Change Station
CLOSE
Current Station
Airport
Location: Seychelles,
Elevation: 10 ft
Nearby Weather Stations

Elev 10 ft 4.67 °S, 55.52 °E | Updated 14 minutes ago

Scattered Clouds
Scattered Clouds
81 °F
Feels Like 86 °F
N
0
Wind Variable Wind from North

Today
High -- | Low -- °F
--% Chance of Precip.
Yesterday
High -- | Low -- °F
Precip. -- in
6:04 AM 6:30 PM
Waxing Crescent, 18% visible
Pressure 29.92 in
Visibility 6.2 miles
Clouds Scattered Clouds 1700 ft
Heat Index 86 °F
Dew Point 75 °F
Humidity 84%
Rainfall 0.00 in
Snow Depth Not available.
UV 0 out of 12
Pollen Not available.
Air Quality Not available.
Flu Activity Not available.
METAR FSIA 251900Z 00000KT 9999 SCT017 27/24 Q1013 NOSIG

More Conditions Fewer Conditions

Pressure 29.92 in
Visibility 6.2 miles
Clouds Scattered Clouds 1700 ft
Heat Index 86 °F
Dew Point 75 °F
Humidity 84%
Rainfall 0.00 in
Snow Depth Not available.
UV 0 out of 12
Pollen Not available.
Air Quality Not available.
Flu Activity Not available.
METAR FSIA 251900Z 00000KT 9999 SCT017 27/24 Q1013 NOSIG

More Conditions Fewer Conditions

10-Day Weather Forecast

Almanac

Astronomy

Dec. 25, 2014 Rise Set
Actual Time
Civil Twilight
Nautical Twilight
Astronomical Twilight
Moon
Length of Visible Light
Length of Day
Tomorrow will be .
, % of the Moon is Illuminated

Today's Extremes

Country Highs Country Lows

Community

WunderPhotos

Upload Photos

1,780,366 photos uploaded!

WunderBlogs® & News

Nearby

Air Quality

  Air Quality AQ Index Pollutant
Not available.

Snow Depth

Station Depth Elevation

Earthquake Activity

City Distance Mag. Time & Date
Minimum magnitude displayed is 2.5.

Coastal Water Temperatures

Place Temperature

Nearby Weather Stations